Victoria Regional Airport
KVCT : now visible

Airfield :











YOU CAN JOIN US ON...

 
LOGIN :

Register | Disclaimer

   EN    FR    IT 

 









Legend :    VFR   Marginal VFR   IFR   Intensive IFR   Very Intensive IFR
Visi :
Ceiling :
>= 8 km
>= 3000ft
5 to 8 km
1000 to 3000 ft
1500m to 5 km
500 to 1000 ft
800 to 1500m
200 to 500 ft
< 800m
< 200 ft
Symbols :   Thunderstorms  Fog  Heavy snow  Heavy precipitations  Wind > 20 kt






- Airport Elevation : 115 ft
- IATA code : VCT


KVCT - Victoria Regional

CURRENT METAR :
  • 170551Z AUTO 03003KT 10SM CLR 23/21 A2989 RMK AO2 SLP119 T02330211 10300 20233 403440200 58002

EXPIRED METARs :
  • 170451Z AUTO 03003KT 10SM CLR 24/22 A2989 RMK AO2 SLP121 T02390217
  • 170351Z AUTO 01004KT 10SM CLR 25/22 A2990 RMK AO2 SLP122 T02500222

TAF KVCT
Valid from the 17 at 06:00 until the 18 at 06:00 UTC


170520Z 1706/1806 VRB03KT P6SM SKC
TEMPO 1709/1713 4SM BR
FM171900 14008KT P6SM FEW040 FEW250
FM180400 16005KT P6SM SKC
KZHU FIR / North America



MET'MAP, your aeronautical weather chart ! - Copyright ORBIFLY December 2007 - Disclaimer

ORBIFLY MET'MAP TEAM :

Programming & Development : Alexandra Zaïnal
Concept & original design : Baudouin d'Aumeries
Assistance for programming : Marc-Olivier Méhu
Technical & hardware support : Manuel Goepfert

Contact : metmap@orbifly.com




SOURCES & CREDITS :

   NOAA       Earth
Advisory